createdAt,value
2023-07-31T00:00:03.464Z,2.30
2023-07-31T00:02:16.561Z,2.20
2023-07-31T00:04:29.177Z,2.30
2023-07-31T00:06:42.251Z,2.30
2023-07-31T00:08:55.341Z,2.10
2023-07-31T00:11:08.024Z,2.30
2023-07-31T00:13:20.782Z,2.30
2023-07-31T00:15:33.387Z,2.20
2023-07-31T00:17:46.144Z,2.30
2023-07-31T00:19:58.780Z,2.30
2023-07-31T00:22:11.364Z,2.60
2023-07-31T00:24:23.977Z,2.30
2023-07-31T00:26:36.630Z,2.40
2023-07-31T00:28:49.388Z,2.20
2023-07-31T00:31:03.217Z,2.10
2023-07-31T00:33:15.839Z,2.20
2023-07-31T00:35:28.430Z,2.20
2023-07-31T00:37:41.049Z,2.10
2023-07-31T00:39:53.644Z,2.00
2023-07-31T00:42:06.568Z,2.20
2023-07-31T00:44:19.220Z,2.10
2023-07-31T00:46:31.857Z,2.10
2023-07-31T00:48:44.839Z,2.20
2023-07-31T00:50:57.527Z,2.20
2023-07-31T00:53:10.144Z,2.20
2023-07-31T00:55:23.194Z,2.10
2023-07-31T00:57:37.703Z,2.20
2023-07-31T00:59:50.426Z,2.10
2023-07-31T01:02:04.015Z,2.00
2023-07-31T01:04:18.284Z,2.20
2023-07-31T01:06:56.162Z,2.40
2023-07-31T01:09:33.269Z,2.10
2023-07-31T01:11:55.921Z,2.10
2023-07-31T01:14:08.546Z,2.00
2023-07-31T01:16:21.269Z,2.10
2023-07-31T01:18:34.001Z,1.90
2023-07-31T01:20:54.656Z,2.30
2023-07-31T01:23:32.959Z,2.30
2023-07-31T01:25:51.713Z,2.00
2023-07-31T01:28:21.739Z,2.00
2023-07-31T01:30:38.805Z,2.10
2023-07-31T01:32:54.095Z,2.00
2023-07-31T01:35:07.438Z,2.00
2023-07-31T01:37:20.152Z,1.90
2023-07-31T01:39:32.836Z,2.00
2023-07-31T01:41:45.458Z,2.10
2023-07-31T01:43:58.340Z,2.20
2023-07-31T01:46:11.042Z,2.00
2023-07-31T01:48:23.747Z,1.90
2023-07-31T01:50:36.350Z,2.00
2023-07-31T01:52:49.023Z,2.10
2023-07-31T01:55:01.793Z,2.20
2023-07-31T01:57:14.520Z,1.90
2023-07-31T01:59:27.161Z,2.10
2023-07-31T02:01:39.831Z,2.30
2023-07-31T02:03:52.610Z,3.20
2023-07-31T02:06:05.285Z,3.90
2023-07-31T02:08:18.187Z,3.50
2023-07-31T02:10:30.866Z,2.90
2023-07-31T02:12:43.456Z,2.80
2023-07-31T02:14:56.087Z,2.90
2023-07-31T02:17:08.760Z,2.80
2023-07-31T02:19:21.462Z,3.30
2023-07-31T02:21:34.094Z,2.50
2023-07-31T02:23:46.742Z,2.70
2023-07-31T02:25:59.478Z,2.60
2023-07-31T02:28:12.453Z,3.30
2023-07-31T02:30:25.139Z,2.90
2023-07-31T02:32:37.842Z,3.00
2023-07-31T02:34:50.598Z,3.30
2023-07-31T02:37:03.348Z,3.30
2023-07-31T02:39:16.007Z,3.80
2023-07-31T02:41:28.873Z,3.50
2023-07-31T02:43:41.837Z,3.90
2023-07-31T02:45:54.858Z,3.10
2023-07-31T02:48:07.552Z,2.70
2023-07-31T02:50:20.177Z,2.30
2023-07-31T02:52:32.733Z,2.30
2023-07-31T02:54:45.600Z,2.70
2023-07-31T02:56:58.340Z,2.10
2023-07-31T02:59:13.303Z,2.70
2023-07-31T03:01:25.994Z,2.40
2023-07-31T03:03:38.716Z,2.10
2023-07-31T03:05:51.485Z,2.30
2023-07-31T03:08:05.540Z,2.20
2023-07-31T03:10:18.291Z,2.40
2023-07-31T03:12:30.883Z,2.50
2023-07-31T03:14:43.548Z,2.40
2023-07-31T03:16:56.152Z,2.30
2023-07-31T03:19:08.880Z,2.40
2023-07-31T03:21:21.505Z,2.40
2023-07-31T03:23:34.130Z,2.40
2023-07-31T03:25:57.762Z,2.30
2023-07-31T03:28:10.445Z,2.30
2023-07-31T03:30:23.079Z,2.50
2023-07-31T03:32:35.713Z,2.50
2023-07-31T03:34:48.354Z,2.50
2023-07-31T03:37:00.973Z,2.40
2023-07-31T03:39:13.693Z,2.80
2023-07-31T03:41:26.323Z,2.50
2023-07-31T03:43:39.172Z,2.40
2023-07-31T03:45:51.938Z,2.60
2023-07-31T03:48:05.505Z,2.30
2023-07-31T03:50:18.487Z,2.60
2023-07-31T03:52:31.161Z,2.70
2023-07-31T03:54:45.621Z,2.40
2023-07-31T03:56:58.303Z,2.30
2023-07-31T03:59:10.915Z,2.90
2023-07-31T04:01:23.749Z,2.80
2023-07-31T04:03:36.535Z,2.40
2023-07-31T04:05:49.364Z,2.60
2023-07-31T04:08:02.040Z,2.60
2023-07-31T04:10:14.771Z,2.70
2023-07-31T04:12:27.628Z,2.50
2023-07-31T04:14:40.411Z,2.30
2023-07-31T04:16:53.591Z,2.90
2023-07-31T04:19:06.350Z,2.60
2023-07-31T04:21:19.053Z,2.90
2023-07-31T04:23:31.901Z,2.80
2023-07-31T04:25:44.561Z,2.60
2023-07-31T04:27:57.300Z,2.80
2023-07-31T04:30:10.194Z,2.60
2023-07-31T04:32:22.849Z,2.70
2023-07-31T04:34:35.522Z,2.40
2023-07-31T04:36:48.140Z,2.50
2023-07-31T04:39:00.993Z,2.60
2023-07-31T04:41:13.636Z,2.30
2023-07-31T04:43:26.318Z,2.50
2023-07-31T04:45:39.146Z,2.50
2023-07-31T04:47:51.857Z,2.50
2023-07-31T04:50:04.767Z,2.50
2023-07-31T04:52:17.417Z,2.30
2023-07-31T04:54:30.114Z,2.50
2023-07-31T04:56:42.777Z,2.70
2023-07-31T04:58:55.996Z,2.60
2023-07-31T05:01:08.590Z,2.40
2023-07-31T05:03:21.318Z,2.60
2023-07-31T05:05:34.081Z,2.20
2023-07-31T05:07:46.731Z,2.60
2023-07-31T05:09:59.355Z,2.30
2023-07-31T05:12:11.929Z,2.40
2023-07-31T05:14:24.595Z,2.20
2023-07-31T05:16:37.348Z,2.40
2023-07-31T05:18:50.227Z,2.40
2023-07-31T05:21:03.199Z,2.40
2023-07-31T05:23:15.803Z,2.40
2023-07-31T05:25:28.387Z,2.40
2023-07-31T05:27:41.047Z,2.30
2023-07-31T05:29:53.661Z,2.30
2023-07-31T05:34:54.279Z,2.10
2023-07-31T05:37:07.133Z,2.60
2023-07-31T05:39:20.800Z,2.40
2023-07-31T05:41:33.567Z,2.60
2023-07-31T05:43:46.772Z,2.80
2023-07-31T05:45:59.405Z,2.70
2023-07-31T05:48:12.034Z,2.50
2023-07-31T05:50:24.683Z,2.90
2023-07-31T05:52:37.325Z,2.40
2023-07-31T05:54:49.901Z,2.40
2023-07-31T05:57:02.564Z,2.40
2023-07-31T05:59:15.175Z,2.30
2023-07-31T06:01:27.890Z,2.10
2023-07-31T06:03:40.672Z,2.10
2023-07-31T06:05:53.320Z,2.20
2023-07-31T06:08:05.948Z,2.20
2023-07-31T06:10:18.670Z,2.00
2023-07-31T06:12:35.187Z,2.10
2023-07-31T06:14:47.771Z,2.30
2023-07-31T06:17:00.358Z,2.20
2023-07-31T06:19:13.040Z,2.00
2023-07-31T06:21:25.865Z,1.90
2023-07-31T06:23:38.472Z,1.90
2023-07-31T06:25:51.100Z,2.00
2023-07-31T06:28:03.990Z,1.90
2023-07-31T06:30:16.696Z,2.00
2023-07-31T06:32:29.749Z,2.10
2023-07-31T06:34:42.609Z,2.00
2023-07-31T06:36:55.315Z,1.90
2023-07-31T06:39:07.977Z,2.20
2023-07-31T06:41:20.662Z,1.90
2023-07-31T06:43:33.265Z,2.10
2023-07-31T06:45:46.943Z,2.20
2023-07-31T06:48:02.685Z,1.80
2023-07-31T06:50:15.360Z,1.80
2023-07-31T06:52:27.988Z,1.90
2023-07-31T06:54:40.677Z,2.00
2023-07-31T06:56:53.284Z,1.90
2023-07-31T06:59:05.904Z,1.50
2023-07-31T07:01:18.596Z,1.90
2023-07-31T07:03:31.634Z,1.90
2023-07-31T07:05:44.299Z,1.80
2023-07-31T07:07:57.006Z,1.70
2023-07-31T07:10:10.018Z,2.00
2023-07-31T07:12:22.634Z,2.00
2023-07-31T07:14:35.247Z,1.70
2023-07-31T07:16:52.281Z,1.80
2023-07-31T07:19:05.581Z,1.90
2023-07-31T07:21:19.112Z,2.10
2023-07-31T07:23:32.076Z,1.90
2023-07-31T07:25:46.158Z,1.80
2023-07-31T07:27:58.816Z,1.90
2023-07-31T07:30:11.630Z,2.10
2023-07-31T07:32:24.304Z,1.70
2023-07-31T07:34:36.992Z,1.80
2023-07-31T07:36:50.068Z,1.80
2023-07-31T07:39:02.746Z,1.90
2023-07-31T07:41:15.325Z,1.50
2023-07-31T07:43:27.935Z,1.70
2023-07-31T07:45:40.528Z,1.60
2023-07-31T07:47:53.166Z,1.70
2023-07-31T07:50:08.847Z,1.40
2023-07-31T07:52:22.577Z,1.50
2023-07-31T07:54:35.183Z,1.50
2023-07-31T07:56:47.887Z,1.70
2023-07-31T07:59:00.535Z,1.60
2023-07-31T08:01:13.280Z,1.60
2023-07-31T08:03:25.968Z,1.70
2023-07-31T08:05:38.693Z,1.60
2023-07-31T08:07:51.408Z,1.80
2023-07-31T08:10:04.293Z,1.50
2023-07-31T08:12:17.007Z,1.50
2023-07-31T08:14:31.370Z,1.60
2023-07-31T08:16:45.814Z,1.60
2023-07-31T08:18:58.612Z,1.60
2023-07-31T08:21:11.465Z,2.50
2023-07-31T08:23:24.142Z,1.60
2023-07-31T08:25:37.333Z,1.80
2023-07-31T08:27:50.029Z,1.80
2023-07-31T08:30:02.757Z,1.80
2023-07-31T08:32:15.558Z,1.60
2023-07-31T08:34:28.154Z,1.80
2023-07-31T08:36:41.124Z,1.70
2023-07-31T08:38:54.099Z,1.90
2023-07-31T08:41:06.789Z,1.60
2023-07-31T08:43:20.367Z,1.80
2023-07-31T08:45:33.561Z,1.50
2023-07-31T08:47:49.082Z,1.60
2023-07-31T08:50:03.187Z,1.60
2023-07-31T08:52:16.001Z,1.60
2023-07-31T08:54:31.974Z,1.80
2023-07-31T08:56:45.680Z,1.50
2023-07-31T08:58:59.634Z,2.00
2023-07-31T09:01:12.733Z,1.70
2023-07-31T09:03:27.136Z,1.90
2023-07-31T09:05:43.740Z,1.70
2023-07-31T09:07:58.123Z,1.80
2023-07-31T09:10:11.098Z,2.00
2023-07-31T09:12:23.907Z,1.90
2023-07-31T09:14:38.216Z,1.80
2023-07-31T09:17:01.055Z,1.90
2023-07-31T09:19:13.893Z,2.00
2023-07-31T09:21:28.689Z,1.90
2023-07-31T09:23:46.504Z,2.10
2023-07-31T09:26:01.574Z,1.80
2023-07-31T09:28:14.637Z,2.30
2023-07-31T09:30:27.836Z,1.80
2023-07-31T09:32:40.573Z,2.00
2023-07-31T09:34:53.391Z,2.10
2023-07-31T09:37:06.506Z,2.10
2023-07-31T09:39:20.924Z,2.30
2023-07-31T09:41:38.391Z,2.10
2023-07-31T09:43:55.598Z,2.30
2023-07-31T09:46:14.983Z,2.20
2023-07-31T09:48:28.653Z,2.30
2023-07-31T09:50:43.987Z,2.00
2023-07-31T09:52:56.600Z,2.20
2023-07-31T09:55:10.793Z,2.00
2023-07-31T09:57:24.777Z,2.20
2023-07-31T09:59:37.876Z,2.00
2023-07-31T10:01:50.799Z,1.90
2023-07-31T10:04:05.741Z,1.90
2023-07-31T10:06:20.482Z,1.90
2023-07-31T10:08:37.728Z,2.20
2023-07-31T10:10:50.657Z,1.80
2023-07-31T10:13:05.021Z,2.00
2023-07-31T10:15:18.537Z,1.90
2023-07-31T10:17:34.578Z,1.90
2023-07-31T10:19:49.116Z,2.00
2023-07-31T10:22:04.083Z,2.20
2023-07-31T10:24:17.300Z,2.10
2023-07-31T10:26:30.439Z,1.80
2023-07-31T10:28:45.181Z,1.80
2023-07-31T10:30:58.791Z,1.90
2023-07-31T10:33:11.995Z,1.40
2023-07-31T10:35:24.767Z,1.70
2023-07-31T10:37:38.272Z,1.80
2023-07-31T10:40:04.553Z,1.70
2023-07-31T10:42:17.263Z,1.80
2023-07-31T10:44:29.909Z,1.60
2023-07-31T10:46:42.768Z,1.70
2023-07-31T10:49:03.784Z,1.70
2023-07-31T10:51:18.412Z,1.80
2023-07-31T10:53:33.433Z,1.80
2023-07-31T10:55:46.681Z,1.50
2023-07-31T10:58:13.300Z,1.40
2023-07-31T11:00:30.474Z,1.50
2023-07-31T11:02:57.564Z,1.70
2023-07-31T11:05:10.960Z,1.70
2023-07-31T11:07:23.615Z,1.50
2023-07-31T11:09:36.546Z,1.60
2023-07-31T11:11:51.591Z,1.60
2023-07-31T11:14:04.202Z,1.70
2023-07-31T11:16:18.628Z,1.50
2023-07-31T11:18:31.272Z,1.60
2023-07-31T11:20:44.341Z,1.70
2023-07-31T11:23:02.090Z,1.80
2023-07-31T11:25:15.848Z,1.60
2023-07-31T11:27:29.954Z,1.90
2023-07-31T11:29:42.538Z,1.70
2023-07-31T11:31:55.169Z,1.70
2023-07-31T11:34:08.527Z,1.60
2023-07-31T11:36:22.017Z,1.70
2023-07-31T11:38:35.242Z,1.80
2023-07-31T11:40:47.847Z,2.00
2023-07-31T11:43:05.491Z,1.70
2023-07-31T11:45:18.180Z,1.80
2023-07-31T11:47:33.342Z,1.80
2023-07-31T11:49:46.100Z,1.70
2023-07-31T11:51:58.982Z,1.90
2023-07-31T11:54:13.891Z,1.90
2023-07-31T11:56:27.216Z,1.80
2023-07-31T11:58:41.005Z,1.90
2023-07-31T12:00:54.163Z,1.80
2023-07-31T12:03:07.022Z,1.60
2023-07-31T12:05:20.028Z,1.70
2023-07-31T12:07:54.261Z,1.80
2023-07-31T12:10:07.652Z,1.70
2023-07-31T12:12:24.158Z,1.80
2023-07-31T12:14:42.948Z,1.70
2023-07-31T12:16:57.264Z,1.80
2023-07-31T12:19:10.117Z,1.90
2023-07-31T12:21:22.894Z,1.70
2023-07-31T12:23:38.252Z,1.80
2023-07-31T12:26:04.541Z,1.80
2023-07-31T12:28:23.303Z,1.80
2023-07-31T12:30:36.203Z,2.00
2023-07-31T12:32:49.061Z,1.80
2023-07-31T12:35:02.770Z,1.90
2023-07-31T12:37:15.503Z,1.80
2023-07-31T12:39:30.540Z,1.80
2023-07-31T12:41:43.393Z,1.90
2023-07-31T12:43:56.145Z,2.10
2023-07-31T12:46:09.614Z,2.40
2023-07-31T12:48:22.443Z,1.80
2023-07-31T12:50:37.699Z,2.00
2023-07-31T12:52:50.629Z,1.90
2023-07-31T12:55:06.162Z,1.80
2023-07-31T12:57:21.159Z,1.90
2023-07-31T12:59:33.924Z,2.10
2023-07-31T13:01:46.809Z,2.10
2023-07-31T13:04:00.028Z,1.80
2023-07-31T13:06:13.937Z,1.90
2023-07-31T13:08:26.732Z,2.10
2023-07-31T13:10:39.619Z,2.10
2023-07-31T13:12:52.581Z,2.10
2023-07-31T13:15:09.454Z,2.30
2023-07-31T13:17:22.994Z,2.10
2023-07-31T13:19:36.119Z,2.10
2023-07-31T13:21:52.448Z,1.90
2023-07-31T13:24:08.270Z,2.20
2023-07-31T13:26:23.363Z,2.10
2023-07-31T13:28:40.661Z,1.90
2023-07-31T13:30:55.589Z,2.10
2023-07-31T13:33:29.619Z,2.00
2023-07-31T13:35:46.086Z,1.90
2023-07-31T13:37:59.597Z,1.80
2023-07-31T13:40:15.982Z,1.80
2023-07-31T13:42:40.249Z,2.20
2023-07-31T13:44:53.746Z,2.10
2023-07-31T13:47:06.684Z,2.00
2023-07-31T13:49:19.408Z,2.10
2023-07-31T13:51:32.294Z,2.00
2023-07-31T13:53:44.927Z,2.20
2023-07-31T13:55:57.720Z,2.10
2023-07-31T13:58:10.438Z,2.10
2023-07-31T14:00:23.231Z,2.10
2023-07-31T14:02:36.618Z,2.20
2023-07-31T14:04:49.476Z,1.90
2023-07-31T14:07:02.229Z,2.10
2023-07-31T14:09:18.531Z,1.90
2023-07-31T14:11:34.893Z,1.80
2023-07-31T14:13:47.538Z,1.80
2023-07-31T14:16:00.243Z,1.70
2023-07-31T14:18:14.893Z,1.70
2023-07-31T14:20:34.229Z,1.60
2023-07-31T14:22:47.296Z,1.80
2023-07-31T14:25:00.081Z,1.60
2023-07-31T14:27:12.925Z,1.70
2023-07-31T14:29:25.651Z,1.60
2023-07-31T14:31:38.492Z,1.80
2023-07-31T14:33:51.142Z,1.70
2023-07-31T14:36:04.117Z,1.90
2023-07-31T14:38:16.788Z,1.70
2023-07-31T14:40:29.415Z,1.70
2023-07-31T14:42:42.078Z,1.60
2023-07-31T14:44:54.743Z,1.70
2023-07-31T14:47:07.364Z,1.60
2023-07-31T14:49:19.987Z,1.80
2023-07-31T14:51:32.610Z,1.90
2023-07-31T14:53:45.289Z,1.90
2023-07-31T14:55:58.272Z,1.50
2023-07-31T14:58:12.137Z,1.50
2023-07-31T15:00:27.570Z,1.80
2023-07-31T15:02:40.764Z,1.60
2023-07-31T15:04:53.534Z,1.70
2023-07-31T15:07:06.580Z,1.80
2023-07-31T15:09:19.230Z,1.90
2023-07-31T15:11:31.824Z,1.70
2023-07-31T15:13:44.537Z,1.80
2023-07-31T15:15:57.437Z,1.90
2023-07-31T15:18:10.083Z,1.70
2023-07-31T15:20:22.811Z,1.80
2023-07-31T15:22:35.398Z,1.70
2023-07-31T15:24:50.003Z,2.20
2023-07-31T15:27:03.906Z,1.80
2023-07-31T15:29:20.630Z,1.90
2023-07-31T15:31:33.638Z,1.80
2023-07-31T15:33:46.473Z,1.90
2023-07-31T15:35:59.328Z,1.70
2023-07-31T15:38:12.047Z,2.10
2023-07-31T15:40:24.688Z,2.00
2023-07-31T15:42:40.718Z,1.90
2023-07-31T15:44:53.362Z,2.10
2023-07-31T15:47:06.040Z,2.00
2023-07-31T15:49:18.832Z,2.10
2023-07-31T15:51:31.537Z,2.00
2023-07-31T15:53:44.142Z,1.90
2023-07-31T15:55:56.999Z,2.00
2023-07-31T15:58:09.657Z,2.10
2023-07-31T16:00:22.255Z,2.00
2023-07-31T16:02:35.912Z,2.10
2023-07-31T16:04:48.761Z,1.80
2023-07-31T16:07:01.526Z,2.00
2023-07-31T16:09:14.224Z,2.10
2023-07-31T16:11:28.051Z,2.00
2023-07-31T16:13:40.664Z,1.70
2023-07-31T16:15:53.267Z,1.90
2023-07-31T16:18:06.025Z,1.90
2023-07-31T16:20:19.784Z,2.10
2023-07-31T16:22:32.405Z,2.20
2023-07-31T16:24:45.306Z,2.10
2023-07-31T16:26:57.920Z,2.30
2023-07-31T16:29:10.572Z,2.10
2023-07-31T16:31:23.376Z,2.10
2023-07-31T16:33:37.494Z,2.30
2023-07-31T16:35:50.328Z,2.00
2023-07-31T16:38:03.028Z,2.30
2023-07-31T16:40:15.805Z,2.20
2023-07-31T16:42:28.539Z,2.50
2023-07-31T16:44:41.622Z,2.30
2023-07-31T16:46:54.313Z,2.50
2023-07-31T16:49:07.192Z,2.50
2023-07-31T16:51:21.505Z,2.30
2023-07-31T16:53:35.479Z,2.20
2023-07-31T16:55:48.154Z,2.50
2023-07-31T16:58:00.836Z,2.40
2023-07-31T17:00:13.853Z,2.30
2023-07-31T17:02:26.533Z,2.30
2023-07-31T17:04:39.343Z,2.00
2023-07-31T17:06:51.973Z,2.30
2023-07-31T17:09:04.805Z,2.30
2023-07-31T17:11:17.456Z,1.80
2023-07-31T17:13:30.090Z,2.20
2023-07-31T17:15:42.874Z,2.10
2023-07-31T17:17:55.657Z,2.10
2023-07-31T17:20:08.980Z,2.10
2023-07-31T17:22:28.503Z,2.00
2023-07-31T17:24:47.681Z,2.10
2023-07-31T17:27:00.466Z,2.10
2023-07-31T17:29:17.956Z,2.20
2023-07-31T17:31:31.599Z,2.40
2023-07-31T17:33:44.305Z,2.10
2023-07-31T17:35:56.935Z,2.00
2023-07-31T17:38:09.559Z,1.90
2023-07-31T17:40:22.223Z,1.80
2023-07-31T17:42:35.217Z,1.90
2023-07-31T17:44:47.829Z,2.00
2023-07-31T17:47:00.683Z,2.00
2023-07-31T17:49:13.299Z,1.90
2023-07-31T17:51:26.176Z,2.00
2023-07-31T17:53:38.827Z,2.00
2023-07-31T17:55:51.729Z,1.70
2023-07-31T17:58:04.510Z,2.10
2023-07-31T18:00:17.198Z,2.10
2023-07-31T18:02:30.797Z,1.90
2023-07-31T18:04:43.804Z,2.10
2023-07-31T18:06:56.585Z,2.10
2023-07-31T18:09:10.223Z,2.10
2023-07-31T18:11:23.704Z,2.20
2023-07-31T18:13:36.341Z,2.30
2023-07-31T18:15:49.009Z,2.00
2023-07-31T18:18:01.684Z,2.30
2023-07-31T18:20:14.406Z,2.00
2023-07-31T18:22:27.062Z,2.10
2023-07-31T18:24:39.705Z,2.10
2023-07-31T18:26:52.398Z,2.20
2023-07-31T18:29:05.261Z,2.30
2023-07-31T18:31:18.023Z,2.40
2023-07-31T18:33:30.778Z,1.90
2023-07-31T18:35:43.402Z,1.80
2023-07-31T18:37:56.050Z,2.00
2023-07-31T18:40:09.294Z,1.90
2023-07-31T18:42:21.968Z,2.10
2023-07-31T18:44:34.783Z,2.10
2023-07-31T18:46:47.459Z,2.20
2023-07-31T18:49:00.092Z,2.10
2023-07-31T18:51:12.967Z,2.20
2023-07-31T18:53:25.945Z,2.10
2023-07-31T18:55:43.206Z,2.10
2023-07-31T18:57:55.949Z,2.00
2023-07-31T19:00:10.923Z,2.10
2023-07-31T19:02:23.632Z,2.40
2023-07-31T19:04:36.687Z,2.20
2023-07-31T19:06:49.322Z,2.30
2023-07-31T19:09:02.555Z,2.00
2023-07-31T19:11:28.458Z,2.20
2023-07-31T19:13:46.126Z,2.10
2023-07-31T19:15:58.906Z,2.50
2023-07-31T19:18:11.648Z,2.20
2023-07-31T19:20:24.294Z,2.50
2023-07-31T19:22:36.938Z,2.30
2023-07-31T19:24:49.572Z,2.00
2023-07-31T19:27:03.972Z,2.60
2023-07-31T19:29:16.689Z,2.20
2023-07-31T19:31:29.379Z,2.50
2023-07-31T19:33:42.132Z,2.30
2023-07-31T19:35:59.460Z,2.10
2023-07-31T19:38:12.277Z,2.20
2023-07-31T19:40:26.516Z,2.40
2023-07-31T19:42:39.194Z,2.60
2023-07-31T19:44:51.888Z,2.40
2023-07-31T19:47:06.047Z,2.40
2023-07-31T19:49:19.141Z,2.30
2023-07-31T19:51:31.967Z,2.10
2023-07-31T19:53:44.622Z,2.00
2023-07-31T19:55:58.516Z,2.30
2023-07-31T19:58:11.188Z,2.40
2023-07-31T20:00:23.888Z,2.50
2023-07-31T20:02:38.755Z,2.50
2023-07-31T20:04:51.994Z,2.30
2023-07-31T20:07:05.017Z,2.30
2023-07-31T20:09:17.899Z,2.70
2023-07-31T20:11:31.364Z,2.70
2023-07-31T20:13:44.040Z,2.50
2023-07-31T20:15:56.712Z,2.60
2023-07-31T20:18:09.395Z,2.40
2023-07-31T20:20:22.259Z,2.40
2023-07-31T20:22:34.970Z,2.50
2023-07-31T20:24:47.718Z,2.30
2023-07-31T20:27:00.411Z,2.60
2023-07-31T20:29:13.076Z,2.50
2023-07-31T20:31:25.716Z,2.80
2023-07-31T20:33:38.496Z,2.60
2023-07-31T20:35:51.137Z,2.60
2023-07-31T20:38:04.675Z,2.50
2023-07-31T20:40:17.369Z,2.60
2023-07-31T20:42:30.390Z,2.60
2023-07-31T20:44:43.110Z,2.40
2023-07-31T20:46:55.872Z,2.60
2023-07-31T20:49:08.794Z,2.90
2023-07-31T20:51:21.673Z,2.60
2023-07-31T20:53:34.314Z,2.50
2023-07-31T20:55:48.115Z,2.70
2023-07-31T20:58:00.846Z,2.50
2023-07-31T21:00:15.768Z,2.70
2023-07-31T21:02:28.601Z,2.50
2023-07-31T21:04:41.592Z,2.50
2023-07-31T21:06:54.224Z,2.60
2023-07-31T21:09:06.927Z,2.50
2023-07-31T21:11:19.840Z,2.70
2023-07-31T21:13:32.610Z,2.60
2023-07-31T21:15:46.073Z,2.80
2023-07-31T21:17:59.813Z,2.70
2023-07-31T21:20:13.587Z,2.70
2023-07-31T21:22:26.763Z,2.50
2023-07-31T21:24:39.418Z,2.60
2023-07-31T21:26:52.113Z,2.60
2023-07-31T21:29:04.791Z,2.60
2023-07-31T21:31:17.547Z,2.40
2023-07-31T21:33:31.961Z,2.70
2023-07-31T21:35:44.592Z,2.60
2023-07-31T21:37:57.301Z,2.50
2023-07-31T21:40:10.768Z,2.40
2023-07-31T21:42:23.502Z,2.50
2023-07-31T21:44:36.374Z,2.30
2023-07-31T21:46:49.032Z,2.60
2023-07-31T21:49:01.720Z,2.70
2023-07-31T21:51:14.360Z,2.30
2023-07-31T21:53:27.165Z,2.30
2023-07-31T21:55:39.875Z,2.50
2023-07-31T21:57:52.606Z,2.40
2023-07-31T22:00:06.149Z,2.30
2023-07-31T22:02:18.922Z,2.40
2023-07-31T22:04:31.578Z,2.20
2023-07-31T22:06:44.221Z,2.30
2023-07-31T22:08:56.885Z,2.40
2023-07-31T22:11:09.546Z,2.50
2023-07-31T22:13:22.263Z,2.40
2023-07-31T22:15:34.839Z,2.50
2023-07-31T22:17:47.485Z,2.40
2023-07-31T22:20:00.330Z,2.40
2023-07-31T22:22:13.159Z,2.40
2023-07-31T22:24:25.789Z,2.40
2023-07-31T22:26:38.721Z,2.70
2023-07-31T22:28:51.679Z,2.10
2023-07-31T22:31:04.385Z,2.30
2023-07-31T22:33:17.052Z,2.30
2023-07-31T22:35:29.796Z,2.10
2023-07-31T22:37:42.588Z,2.30
2023-07-31T22:39:55.240Z,2.40
2023-07-31T22:42:07.846Z,2.40
2023-07-31T22:44:20.469Z,2.40
2023-07-31T22:46:33.176Z,2.20
2023-07-31T22:48:45.820Z,2.20
2023-07-31T22:50:58.556Z,2.20
2023-07-31T22:53:11.216Z,2.50
2023-07-31T22:55:23.789Z,2.10
2023-07-31T22:57:36.435Z,2.30
2023-07-31T22:59:49.055Z,2.20
2023-07-31T23:02:01.826Z,2.60
2023-07-31T23:04:14.902Z,2.30
2023-07-31T23:06:27.522Z,2.20
2023-07-31T23:08:40.162Z,2.40
2023-07-31T23:10:52.899Z,2.50
2023-07-31T23:13:05.574Z,2.20
2023-07-31T23:15:18.348Z,2.30
2023-07-31T23:17:31.012Z,2.30
2023-07-31T23:19:43.742Z,2.30
2023-07-31T23:21:56.389Z,2.40
2023-07-31T23:24:09.778Z,2.40
2023-07-31T23:26:22.384Z,2.50
2023-07-31T23:28:35.070Z,2.50
2023-07-31T23:30:49.075Z,2.50
2023-07-31T23:33:01.755Z,2.40
2023-07-31T23:35:14.597Z,2.60
2023-07-31T23:37:27.195Z,2.30
2023-07-31T23:39:39.878Z,2.60
2023-07-31T23:41:52.674Z,2.40
2023-07-31T23:44:05.489Z,2.30
2023-07-31T23:46:18.192Z,2.20
2023-07-31T23:48:30.796Z,2.40
2023-07-31T23:50:43.474Z,2.50
2023-07-31T23:52:56.977Z,2.50
2023-07-31T23:55:10.513Z,2.50
2023-07-31T23:57:23.242Z,2.10
2023-07-31T23:59:35.885Z,2.70
